Time;durP1;ratioP1;P1;durP2;ratioP2;P2;SDS_P1;SDS_P2;PMS_P1;PMS_P2;Temp;Humidity;BMP_temperature;BMP_pressure;BME280_temperature;BME280_humidity;BME280_pressure;Samples;Min_cycle;Max_cycle;Signal;HPM_P1;HPM_P2
2022/09/29 00:01:47;;;;;;;125.80;19.50;;;4.70;99.90;;;;;;5054514;28;20049;-32
2022/09/29 00:04:13;;;;;;;103.60;18.98;;;4.70;99.90;;;;;;5053080;28;20044;-33
2022/09/29 00:06:39;;;;;;;196.38;20.95;;;5.00;99.90;;;;;;5054233;28;20047;-33
2022/09/29 00:09:05;;;;;;;113.93;19.38;;;4.90;99.90;;;;;;5054122;28;20132;-33
2022/09/29 00:11:30;;;;;;;105.50;20.25;;;4.60;99.90;;;;;;5053808;28;20049;-33
2022/09/29 00:13:56;;;;;;;84.97;14.02;;;4.70;99.90;;;;;;5054646;28;20052;-33
2022/09/29 00:16:22;;;;;;;80.78;13.50;;;4.50;99.90;;;;;;5054057;28;20064;-35
2022/09/29 00:18:47;;;;;;;31.10;11.02;;;4.70;99.90;;;;;;5053913;28;20391;-33
2022/09/29 00:21:18;;;;;;;42.80;12.75;;;4.40;99.90;;;;;;5053648;28;20175;-33
2022/09/29 00:23:45;;;;;;;40.25;12.65;;;4.60;99.90;;;;;;5053935;28;20083;-33
2022/09/29 00:26:14;;;;;;;61.80;16.63;;;4.40;99.90;;;;;;5053905;28;20072;-33
2022/09/29 00:28:45;;;;;;;80.28;18.30;;;4.40;99.90;;;;;;5053190;28;20045;-34
2022/09/29 00:31:11;;;;;;;108.85;21.00;;;4.40;99.90;;;;;;5053700;28;20080;-33
2022/09/29 00:33:37;;;;;;;62.83;19.95;;;4.70;99.90;;;;;;5052644;28;20143;-34
2022/09/29 00:36:07;;;;;;;155.50;24.13;;;4.70;99.90;;;;;;5053748;28;20225;-33
2022/09/29 00:38:33;;;;;;;85.53;18.83;;;4.50;99.90;;;;;;5053611;28;20059;-33
2022/09/29 00:40:59;;;;;;;185.65;22.35;;;4.50;99.90;;;;;;5053651;28;20036;-34
2022/09/29 00:43:59;;;;;;;135.20;22.80;;;4.60;99.90;;;;;;5053636;28;20048;-33
2022/09/29 00:46:27;;;;;;;120.13;20.10;;;4.70;99.90;;;;;;5053582;28;20056;-33
2022/09/29 00:48:57;;;;;;;100.22;19.02;;;4.40;99.90;;;;;;5053576;28;20049;-34
2022/09/29 00:51:26;;;;;;;67.60;19.02;;;4.60;99.90;;;;;;5053583;28;20052;-34
2022/09/29 00:53:52;;;;;;;138.80;20.23;;;4.60;99.90;;;;;;5053849;28;20123;-33
2022/09/29 00:56:19;;;;;;;23.92;12.95;;;4.50;99.90;;;;;;5052563;28;20049;-34
2022/09/29 00:58:55;;;;;;;45.45;16.38;;;4.20;99.90;;;;;;5053119;28;20513;-33
2022/09/29 01:01:24;;;;;;;206.93;26.80;;;4.10;99.90;;;;;;5054339;28;20053;-33
2022/09/29 01:03:54;;;;;;;154.88;26.48;;;4.30;99.90;;;;;;5052838;28;20550;-33
2022/09/29 01:06:41;;;;;;;56.67;18.70;;;4.30;99.90;;;;;;5054060;28;20045;-33
2022/09/29 01:09:15;;;;;;;148.05;23.30;;;4.40;99.90;;;;;;5053430;28;20131;-34
2022/09/29 01:11:41;;;;;;;117.45;21.98;;;4.20;99.90;;;;;;5053438;28;20059;-33
2022/09/29 01:14:09;;;;;;;121.93;19.85;;;4.40;99.90;;;;;;5053358;28;20128;-32
2022/09/29 01:16:36;;;;;;;144.15;21.77;;;4.10;99.90;;;;;;5053348;28;20052;-33
2022/09/29 01:19:29;;;;;;;94.22;18.77;;;4.40;99.90;;;;;;5053696;28;20044;-33
2022/09/29 01:22:10;;;;;;;121.82;18.45;;;4.30;99.90;;;;;;5053347;28;20048;-33
2022/09/29 01:24:57;;;;;;;149.50;24.05;;;4.20;99.90;;;;;;5053272;28;20049;-33
2022/09/29 01:27:44;;;;;;;200.75;25.75;;;4.10;99.90;;;;;;5053340;28;20049;-33
2022/09/29 01:30:36;;;;;;;192.05;22.27;;;4.10;99.90;;;;;;5053792;28;20041;-33
2022/09/29 01:33:16;;;;;;;119.00;21.67;;;4.10;99.90;;;;;;5053239;28;20131;-34
2022/09/29 01:36:01;;;;;;;223.32;28.80;;;4.10;99.90;;;;;;5053565;28;20544;-33
2022/09/29 01:38:34;;;;;;;111.47;24.17;;;4.30;99.90;;;;;;5054140;28;20111;-33
2022/09/29 01:41:04;;;;;;;67.15;21.88;;;4.20;99.90;;;;;;5057597;28;20041;-32
2022/09/29 01:43:38;;;;;;;161.15;27.02;;;4.30;99.90;;;;;;5057418;28;20044;-33
2022/09/29 01:46:27;;;;;;;80.85;22.58;;;4.10;99.90;;;;;;5057145;28;20048;-33
2022/09/29 01:48:55;;;;;;;76.35;23.33;;;4.40;99.90;;;;;;5057412;28;20431;-33
2022/09/29 01:51:31;;;;;;;101.18;25.63;;;4.10;99.90;;;;;;5055604;28;20124;-32
2022/09/29 01:54:04;;;;;;;149.73;29.13;;;4.20;99.90;;;;;;5057279;28;20102;-33
2022/09/29 01:56:45;;;;;;;208.10;33.78;;;4.40;99.90;;;;;;5056698;28;20128;-32
2022/09/29 01:59:25;;;;;;;326.98;41.85;;;4.50;99.90;;;;;;5057161;28;20447;-33
2022/09/29 02:01:56;;;;;;;131.93;29.15;;;4.50;99.90;;;;;;5056615;28;20045;-33
2022/09/29 02:04:40;;;;;;;150.88;27.95;;;4.30;99.90;;;;;;5057082;28;20063;-35
2022/09/29 02:07:13;;;;;;;173.77;30.35;;;4.30;99.90;;;;;;5057056;28;20107;-33
2022/09/29 02:09:44;;;;;;;153.35;29.40;;;4.50;99.90;;;;;;5057052;28;20041;-34
2022/09/29 02:12:17;;;;;;;258.88;38.15;;;4.50;99.90;;;;;;5056393;28;20060;-33
2022/09/29 02:14:46;;;;;;;228.40;33.58;;;4.50;99.90;;;;;;5055785;28;20044;-35
2022/09/29 02:17:20;;;;;;;182.40;31.98;;;4.30;99.90;;;;;;5055082;28;20071;-33
2022/09/29 02:19:50;;;;;;;284.50;36.00;;;4.40;99.90;;;;;;5055985;28;20071;-34
2022/09/29 02:22:17;;;;;;;254.32;38.17;;;4.50;99.90;;;;;;5056201;28;20045;-34
2022/09/29 02:24:43;;;;;;;235.98;35.35;;;4.30;99.90;;;;;;5056109;28;20044;-33
2022/09/29 02:27:09;;;;;;;155.00;32.70;;;4.40;99.90;;;;;;5056631;28;20049;-33
2022/09/29 02:29:36;;;;;;;128.45;28.35;;;4.40;99.90;;;;;;5056006;28;20037;-33
2022/09/29 02:32:03;;;;;;;113.55;27.92;;;4.20;99.90;;;;;;5056235;28;20484;-33
2022/09/29 02:34:31;;;;;;;160.35;34.03;;;4.10;99.90;;;;;;5054808;28;20049;-34
2022/09/29 02:37:10;;;;;;;212.70;32.92;;;4.30;99.90;;;;;;5056476;28;20041;-34
2022/09/29 02:39:38;;;;;;;173.52;30.38;;;4.20;99.90;;;;;;5056102;28;20455;-34
2022/09/29 02:42:43;;;;;;;165.23;30.52;;;4.30;99.90;;;;;;5055826;28;20402;-33
2022/09/29 02:45:24;;;;;;;184.93;33.15;;;4.20;99.90;;;;;;5055764;28;20056;-33
2022/09/29 02:48:15;;;;;;;147.90;34.10;;;4.10;99.90;;;;;;5055766;28;20053;-34
2022/09/29 02:50:56;;;;;;;291.60;41.00;;;4.00;99.90;;;;;;5055053;28;20049;-33
2022/09/29 02:53:38;;;;;;;176.27;34.38;;;4.20;99.90;;;;;;5055160;28;20048;-34
2022/09/29 02:56:16;;;;;;;260.10;36.27;;;4.30;99.90;;;;;;5055243;28;20072;-33
2022/09/29 02:58:50;;;;;;;339.48;42.78;;;4.30;99.90;;;;;;5055739;28;20045;-33
2022/09/29 03:01:16;;;;;;;303.42;42.90;;;4.20;99.90;;;;;;5055485;28;20044;-33
2022/09/29 03:03:42;;;;;;;191.70;37.70;;;4.30;99.90;;;;;;5054836;28;20057;-33
2022/09/29 03:06:09;;;;;;;227.73;38.00;;;4.30;99.90;;;;;;5056192;28;20109;-33
2022/09/29 03:08:35;;;;;;;260.13;38.28;;;4.20;99.90;;;;;;5055583;28;20067;-32
2022/09/29 03:11:01;;;;;;;277.65;35.92;;;4.10;99.90;;;;;;5055252;28;20476;-32
2022/09/29 03:13:27;;;;;;;197.63;36.53;;;4.10;99.90;;;;;;5055220;28;20483;-33
2022/09/29 03:15:52;;;;;;;271.58;42.03;;;4.20;99.90;;;;;;5053930;28;20041;-32
2022/09/29 03:18:18;;;;;;;171.38;32.97;;;4.20;99.90;;;;;;5021147;28;20049;-32
2022/09/29 03:20:44;;;;;;;167.82;33.78;;;3.90;99.90;;;;;;5055000;28;20433;-32
2022/09/29 03:23:10;;;;;;;228.38;37.70;;;3.90;99.90;;;;;;5055030;28;20128;-32
2022/09/29 03:25:35;;;;;;;150.02;30.67;;;4.00;99.90;;;;;;5055526;28;20370;-32
2022/09/29 03:28:01;;;;;;;156.63;31.95;;;3.80;99.90;;;;;;5054082;28;20399;-32
2022/09/29 03:30:27;;;;;;;316.30;45.40;;;3.90;99.90;;;;;;5055207;28;20095;-33
2022/09/29 03:32:53;;;;;;;211.27;35.97;;;4.00;99.90;;;;;;5054835;28;20483;-33
2022/09/29 03:35:18;;;;;;;170.30;36.15;;;3.70;99.90;;;;;;5054918;28;20096;-33
2022/09/29 03:37:44;;;;;;;116.97;30.85;;;3.80;99.90;;;;;;5055581;28;20049;-32
2022/09/29 03:40:10;;;;;;;128.50;34.58;;;3.70;99.90;;;;;;5053439;28;20518;-33
2022/09/29 03:42:36;;;;;;;156.93;34.60;;;3.60;99.90;;;;;;5055253;28;20067;-32
2022/09/29 03:45:02;;;;;;;165.00;34.10;;;3.80;99.90;;;;;;5054295;28;20503;-33
2022/09/29 03:47:28;;;;;;;89.57;27.48;;;3.70;99.90;;;;;;5036997;28;20063;-33
2022/09/29 03:49:53;;;;;;;90.50;27.27;;;3.50;99.90;;;;;;5055359;28;20049;-32
2022/09/29 03:52:19;;;;;;;103.43;27.45;;;3.60;99.90;;;;;;5054398;28;20080;-33
2022/09/29 03:54:45;;;;;;;150.55;30.77;;;3.60;99.90;;;;;;5053225;28;20044;-33
2022/09/29 03:57:11;;;;;;;183.20;32.35;;;3.60;99.90;;;;;;5054348;28;20123;-32
2022/09/29 03:59:36;;;;;;;385.80;47.13;;;3.70;99.90;;;;;;5053225;28;20045;-33
2022/09/29 04:02:02;;;;;;;171.63;32.47;;;3.40;99.90;;;;;;5036626;28;20056;-33
2022/09/29 04:04:28;;;;;;;193.13;34.50;;;3.60;99.90;;;;;;5054260;28;20395;-32
2022/09/29 04:06:54;;;;;;;138.77;32.33;;;3.40;99.90;;;;;;5054209;28;20044;-32
2022/09/29 04:09:20;;;;;;;159.43;34.13;;;3.40;99.90;;;;;;5054763;28;20067;-32
2022/09/29 04:11:45;;;;;;;161.65;35.30;;;3.40;99.90;;;;;;5054119;28;20067;-32
2022/09/29 04:14:11;;;;;;;118.00;30.75;;;3.50;99.90;;;;;;5036563;28;20118;-32
2022/09/29 04:16:37;;;;;;;224.95;44.17;;;3.30;99.90;;;;;;5054011;28;20059;-33
2022/09/29 04:19:02;;;;;;;149.35;36.63;;;3.40;99.90;;;;;;5053897;28;20051;-32
2022/09/29 04:21:28;;;;;;;232.95;40.40;;;3.50;99.90;;;;;;5053962;28;20057;-32
2022/09/29 04:23:53;;;;;;;300.58;39.30;;;3.40;99.90;;;;;;5053893;28;20052;-32
2022/09/29 04:26:19;;;;;;;272.58;42.05;;;3.60;99.90;;;;;;5053838;28;20102;-32
2022/09/29 04:28:45;;;;;;;274.80;38.65;;;3.70;99.90;;;;;;5053887;28;20076;-33
2022/09/29 04:31:11;;;;;;;370.30;47.00;;;3.50;99.90;;;;;;5053796;28;20132;-33
2022/09/29 04:33:38;;;;;;;296.05;41.60;;;3.50;99.90;;;;;;5053566;28;20132;-34
2022/09/29 04:36:04;;;;;;;320.00;36.83;;;3.70;99.90;;;;;;5054069;28;20094;-32
2022/09/29 04:38:30;;;;;;;262.23;43.45;;;3.40;99.90;;;;;;5053720;28;20041;-32
2022/09/29 04:40:56;;;;;;;370.35;39.85;;;3.30;99.90;;;;;;5054178;28;20044;-34
2022/09/29 04:43:22;;;;;;;328.42;44.75;;;3.40;99.90;;;;;;5053661;28;20045;-33
2022/09/29 04:45:48;;;;;;;258.15;36.53;;;3.40;99.90;;;;;;5052320;28;20132;-32
2022/09/29 04:48:14;;;;;;;169.77;31.08;;;3.40;99.90;;;;;;5053538;28;20049;-33
2022/09/29 04:50:39;;;;;;;218.93;35.47;;;3.30;99.90;;;;;;5053565;28;20037;-33
2022/09/29 04:53:06;;;;;;;560.92;60.85;;;3.30;99.90;;;;;;5053463;28;20135;-32
2022/09/29 04:55:32;;;;;;;307.45;38.58;;;3.30;99.90;;;;;;5053489;28;20479;-34
2022/09/29 04:57:58;;;;;;;266.52;43.45;;;3.20;99.90;;;;;;5054002;28;20044;-34
2022/09/29 05:00:24;;;;;;;262.17;39.35;;;3.20;99.90;;;;;;5052515;28;20080;-34
2022/09/29 05:02:49;;;;;;;209.60;35.30;;;3.20;99.90;;;;;;5054311;28;20056;-34
2022/09/29 05:05:15;;;;;;;347.48;48.30;;;3.40;99.90;;;;;;5053999;28;20041;-33
2022/09/29 05:07:41;;;;;;;201.27;38.08;;;3.30;99.90;;;;;;5052363;28;20049;-34
2022/09/29 05:10:08;;;;;;;209.02;40.22;;;3.30;99.90;;;;;;5053659;28;20041;-33
2022/09/29 05:12:34;;;;;;;206.82;38.80;;;3.40;99.90;;;;;;5052660;28;20045;-35
2022/09/29 05:15:00;;;;;;;317.92;50.03;;;3.40;99.90;;;;;;5056718;28;20140;-33
2022/09/29 05:17:26;;;;;;;298.63;49.80;;;3.40;99.90;;;;;;5057427;28;20049;-34
2022/09/29 05:19:51;;;;;;;236.88;43.20;;;3.50;99.90;;;;;;5057265;28;20041;-34
2022/09/29 05:22:23;;;;;;;240.40;44.13;;;3.60;99.90;;;;;;5057309;28;20124;-34
2022/09/29 05:24:51;;;;;;;388.17;50.90;;;3.60;99.90;;;;;;5057838;28;20444;-34
2022/09/29 05:27:17;;;;;;;317.23;47.28;;;3.50;99.90;;;;;;5056501;28;20045;-34
2022/09/29 05:29:43;;;;;;;301.80;47.67;;;3.40;99.90;;;;;;5057193;28;20398;-33
2022/09/29 05:32:09;;;;;;;362.33;51.60;;;3.40;99.90;;;;;;5057143;28;20049;-33
2022/09/29 05:34:34;;;;;;;341.05;50.67;;;3.50;99.90;;;;;;5055542;28;20499;-34
2022/09/29 05:37:00;;;;;;;191.95;40.45;;;3.40;99.90;;;;;;5057272;28;20106;-34
2022/09/29 05:39:26;;;;;;;312.75;48.65;;;3.40;99.90;;;;;;5057761;28;20130;-34
2022/09/29 05:41:51;;;;;;;200.73;42.40;;;3.40;99.90;;;;;;5057213;28;20191;-34
2022/09/29 05:44:17;;;;;;;237.93;49.10;;;3.50;99.90;;;;;;5057231;28;20443;-34
2022/09/29 05:46:43;;;;;;;178.50;43.00;;;3.50;99.90;;;;;;5057128;28;20049;-34
2022/09/29 05:49:09;;;;;;;212.10;41.50;;;3.50;99.90;;;;;;5039275;28;20044;-34
2022/09/29 05:51:35;;;;;;;285.35;52.13;;;3.40;99.90;;;;;;5055726;28;20049;-33
2022/09/29 05:54:01;;;;;;;234.00;45.35;;;3.50;99.90;;;;;;5056725;28;20122;-34
2022/09/29 05:56:27;;;;;;;218.02;45.40;;;3.50;99.90;;;;;;5057233;28;20088;-35
2022/09/29 05:58:53;;;;;;;150.15;41.17;;;3.50;99.90;;;;;;5057084;28;20102;-33
2022/09/29 06:01:21;;;;;;;139.38;41.08;;;3.40;99.90;;;;;;5055550;28;20471;-34
2022/09/29 06:03:47;;;;;;;178.88;44.60;;;3.50;99.90;;;;;;5056539;28;20433;-35
2022/09/29 06:06:19;;;;;;;177.68;44.95;;;3.60;99.90;;;;;;5056668;28;20456;-34
2022/09/29 06:08:46;;;;;;;129.18;42.00;;;3.40;99.90;;;;;;5056745;28;20453;-34
2022/09/29 06:11:15;;;;;;;146.75;45.38;;;3.50;99.90;;;;;;5056074;28;20579;-34
2022/09/29 06:13:43;;;;;;;128.55;40.25;;;3.50;99.90;;;;;;5056859;28;20383;-34
2022/09/29 06:16:09;;;;;;;137.10;41.45;;;3.60;99.90;;;;;;5056309;28;20056;-35
2022/09/29 06:18:35;;;;;;;133.80;43.78;;;3.70;99.90;;;;;;5056234;28;20049;-35
2022/09/29 06:21:09;;;;;;;83.03;38.35;;;3.70;99.90;;;;;;5056462;28;20041;-34
2022/09/29 06:23:35;;;;;;;98.43;40.72;;;3.70;99.90;;;;;;5056486;28;20047;-33
2022/09/29 06:26:08;;;;;;;69.20;35.38;;;3.70;99.90;;;;;;5055611;28;20432;-33
2022/09/29 06:28:34;;;;;;;76.80;37.17;;;3.70;99.90;;;;;;5056194;28;20041;-35
2022/09/29 06:31:02;;;;;;;67.05;34.92;;;3.70;99.90;;;;;;5056016;28;20040;-34
2022/09/29 06:33:29;;;;;;;53.38;32.85;;;3.80;99.90;;;;;;5055806;28;20179;-34
2022/09/29 06:38:41;;;;;;;75.30;37.58;;;3.80;99.90;;;;;;5055562;28;20060;-35
2022/09/29 06:41:07;;;;;;;60.88;34.65;;;4.00;99.90;;;;;;5054858;28;20178;-34
2022/09/29 06:43:33;;;;;;;88.78;42.50;;;3.90;99.90;;;;;;5055786;28;20514;-34
2022/09/29 06:45:59;;;;;;;64.38;35.00;;;4.10;99.90;;;;;;5054554;28;20049;-34
2022/09/29 06:48:25;;;;;;;79.43;39.67;;;4.10;99.90;;;;;;5056275;28;20107;-34
2022/09/29 06:50:51;;;;;;;72.10;36.25;;;4.30;99.90;;;;;;5055733;28;20049;-34
2022/09/29 06:53:16;;;;;;;78.30;39.58;;;4.20;99.90;;;;;;5055517;28;20479;-35
2022/09/29 06:55:42;;;;;;;83.90;39.28;;;4.40;99.90;;;;;;5056405;28;20053;-35
2022/09/29 06:58:08;;;;;;;102.30;43.65;;;4.30;99.90;;;;;;5055565;28;20410;-34
2022/09/29 07:00:34;;;;;;;96.57;43.17;;;4.40;99.90;;;;;;5054237;28;20049;-34
2022/09/29 07:03:00;;;;;;;79.60;39.58;;;4.50;99.90;;;;;;5054492;28;20132;-34
2022/09/29 07:05:26;;;;;;;73.90;39.58;;;4.50;99.90;;;;;;5055401;28;20075;-35
2022/09/29 07:07:53;;;;;;;81.10;42.42;;;4.70;99.90;;;;;;5055360;28;20056;-34
2022/09/29 07:10:19;;;;;;;81.05;39.30;;;4.80;99.90;;;;;;5054379;28;20056;-36
2022/09/29 07:12:46;;;;;;;75.63;41.17;;;4.80;99.90;;;;;;5055236;28;20045;-36
2022/09/29 07:15:12;;;;;;;76.65;39.75;;;4.90;99.90;;;;;;5054287;28;20399;-34
2022/09/29 07:17:39;;;;;;;72.03;39.30;;;5.10;99.90;;;;;;5055195;28;20041;-35
2022/09/29 07:20:06;;;;;;;76.07;40.75;;;5.00;99.90;;;;;;5055663;28;20044;-35
2022/09/29 07:22:32;;;;;;;79.68;40.95;;;5.20;99.90;;;;;;5055112;28;20056;-35
2022/09/29 07:24:57;;;;;;;72.75;41.30;;;5.30;99.90;;;;;;5055002;28;20049;-38
2022/09/29 07:27:23;;;;;;;78.80;41.78;;;5.50;99.90;;;;;;5054650;28;20045;-37
2022/09/29 07:29:52;;;;;;;63.17;38.92;;;5.50;99.90;;;;;;5054501;28;20434;-36
2022/09/29 07:32:18;;;;;;;79.22;45.03;;;5.70;99.90;;;;;;5054632;28;20144;-37
2022/09/29 07:34:44;;;;;;;87.75;47.08;;;5.80;99.90;;;;;;5055011;28;20092;-37
2022/09/29 07:37:13;;;;;;;79.35;45.80;;;6.00;99.90;;;;;;5054653;28;20384;-38
2022/09/29 07:39:40;;;;;;;80.18;44.08;;;6.10;99.90;;;;;;5055214;28;20126;-38
2022/09/29 07:42:05;;;;;;;80.32;47.42;;;6.30;99.90;;;;;;5054689;28;20088;-35
2022/09/29 07:44:31;;;;;;;80.32;45.20;;;6.40;99.90;;;;;;5054667;28;20131;-37
2022/09/29 07:46:57;;;;;;;78.85;46.92;;;6.60;99.90;;;;;;5053346;28;20053;-36
2022/09/29 07:49:23;;;;;;;63.45;36.90;;;6.70;99.90;;;;;;5054529;28;20059;-36
2022/09/29 07:51:48;;;;;;;80.47;45.45;;;6.70;99.90;;;;;;5054441;28;20137;-35
2022/09/29 07:54:14;;;;;;;102.50;53.10;;;6.90;99.90;;;;;;5055005;28;20045;-37
2022/09/29 07:56:40;;;;;;;65.18;37.33;;;7.00;99.90;;;;;;5054946;28;20475;-37
2022/09/29 07:59:06;;;;;;;78.35;44.80;;;7.20;99.90;;;;;;5055406;28;20057;-35
2022/09/29 08:01:32;;;;;;;77.65;43.10;;;7.30;99.90;;;;;;5053627;28;20084;-34
2022/09/29 08:03:58;;;;;;;97.32;50.20;;;7.60;99.90;;;;;;5054347;28;20487;-35
2022/09/29 08:06:25;;;;;;;102.45;52.97;;;7.70;99.90;;;;;;5054834;28;20052;-34
2022/09/29 08:08:51;;;;;;;81.05;43.70;;;7.90;99.90;;;;;;5054174;28;20509;-34
2022/09/29 08:11:19;;;;;;;92.53;49.83;;;8.00;99.90;;;;;;5054192;28;20040;-35
2022/09/29 08:13:50;;;;;;;88.22;52.60;;;8.20;99.90;;;;;;5052848;28;20055;-38
2022/09/29 08:16:15;;;;;;;91.22;53.05;;;8.50;99.90;;;;;;5054670;28;20051;-37
2022/09/29 08:18:41;;;;;;;88.85;50.50;;;8.50;99.90;;;;;;5036605;28;20135;-37
2022/09/29 08:21:11;;;;;;;95.10;53.38;;;8.80;99.90;;;;;;5053939;28;20049;-37
2022/09/29 08:23:39;;;;;;;88.55;49.15;;;9.00;99.90;;;;;;5053983;28;20048;-38
2022/09/29 08:26:06;;;;;;;79.35;45.70;;;9.10;99.90;;;;;;5053970;28;20448;-37
2022/09/29 08:28:34;;;;;;;89.88;50.47;;;9.20;99.90;;;;;;5054184;28;20426;-39
2022/09/29 08:31:05;;;;;;;102.72;54.88;;;9.50;99.90;;;;;;5053718;28;20056;-39
2022/09/29 08:33:31;;;;;;;86.40;50.05;;;9.80;99.90;;;;;;5053599;28;20470;-39
2022/09/29 08:35:58;;;;;;;76.82;44.50;;;9.80;99.90;;;;;;5052704;28;20064;-40
2022/09/29 08:38:25;;;;;;;72.38;45.97;;;10.00;99.90;;;;;;5053759;28;20052;-40
2022/09/29 08:40:51;;;;;;;73.07;45.53;;;10.10;99.90;;;;;;5053246;28;20048;-40
2022/09/29 08:43:37;;;;;;;62.38;41.25;;;10.10;99.90;;;;;;5053665;28;20053;-40
2022/09/29 08:46:30;;;;;;;65.88;41.83;;;10.30;99.90;;;;;;5052717;28;20478;-40
2022/09/29 08:48:58;;;;;;;51.10;32.95;;;10.40;99.90;;;;;;5053426;28;20067;-40
2022/09/29 08:51:28;;;;;;;63.97;32.63;;;10.50;99.90;;;;;;5053579;28;20041;-40
2022/09/29 08:53:56;;;;;;;39.03;26.70;;;10.60;99.90;;;;;;5053301;28;20531;-35
2022/09/29 08:56:23;;;;;;;35.83;24.00;;;10.60;99.90;;;;;;5052869;28;20055;-34
2022/09/29 08:58:50;;;;;;;29.90;22.42;;;10.70;99.90;;;;;;5053481;28;20045;-36
2022/09/29 09:01:18;;;;;;;23.70;18.02;;;10.80;99.90;;;;;;5054334;28;20044;-38
2022/09/29 09:04:04;;;;;;;20.88;15.82;;;10.90;99.90;;;;;;5052512;28;20187;-35
2022/09/29 09:06:48;;;;;;;16.45;14.20;;;11.00;99.90;;;;;;5042286;28;20053;-38
2022/09/29 09:09:17;;;;;;;15.65;12.57;;;11.40;99.90;;;;;;5053842;28;20052;-37
2022/09/29 09:12:06;;;;;;;17.40;11.38;;;12.20;99.90;;;;;;5053381;28;20056;-38
2022/09/29 09:15:00;;;;;;;13.23;10.88;;;13.00;99.90;;;;;;5053419;28;20056;-38
2022/09/29 09:17:31;;;;;;;13.32;10.18;;;13.30;99.90;;;;;;5053360;28;20049;-37
2022/09/29 09:20:13;;;;;;;12.23;8.68;;;13.90;99.90;;;;;;5053555;28;20049;-38
2022/09/29 09:22:42;;;;;;;10.15;7.80;;;14.20;99.90;;;;;;5054217;28;20128;-37
2022/09/29 09:25:26;;;;;;;6.40;5.57;;;14.60;99.90;;;;;;5053307;28;20056;-39
2022/09/29 09:28:11;;;;;;;7.80;5.90;;;14.70;99.90;;;;;;5053347;28;20044;-38
2022/09/29 09:30:55;;;;;;;8.00;6.22;;;14.90;99.90;;;;;;5053572;28;20064;-38
2022/09/29 09:33:50;;;;;;;7.57;5.38;;;15.30;99.90;;;;;;5053620;28;20092;-38
2022/09/29 09:36:28;;;;;;;7.20;4.93;;;15.50;99.90;;;;;;5052058;28;20136;-39
2022/09/29 09:39:02;;;;;;;5.63;3.95;;;15.90;99.90;;;;;;5053133;28;20048;-40
2022/09/29 09:41:33;;;;;;;8.02;4.43;;;16.20;99.90;;;;;;5053136;28;20040;-40
2022/09/29 09:44:24;;;;;;;7.45;3.03;;;16.10;1.00;;;;;;5053739;28;20124;-38
2022/09/29 09:46:57;;;;;;;2.85;2.25;;;16.60;99.90;;;;;;5053088;28;20045;-39
2022/09/29 09:49:28;;;;;;;;;;;17.10;99.90;;;;;;5053531;28;20063;-40
2022/09/29 09:52:16;;;;;;;3.92;2.75;;;16.90;1.00;;;;;;5052186;28;20362;-40
2022/09/29 09:54:48;;;;;;;4.65;2.97;;;17.30;99.90;;;;;;5051948;28;20053;-40
2022/09/29 09:57:51;;;;;;;4.13;2.72;;;17.40;1.00;;;;;;5053324;28;20045;-40
2022/09/29 10:00:28;;;;;;;4.22;3.53;;;17.20;99.90;;;;;;5054828;28;20049;-41
2022/09/29 10:02:56;;;;;;;4.63;2.95;;;16.80;99.90;;;;;;5039379;28;20498;-40
2022/09/29 10:05:28;;;;;;;6.97;2.85;;;17.10;97.40;;;;;;5057107;28;20049;-40
2022/09/29 10:07:55;;;;;;;3.58;2.90;;;17.30;1.00;;;;;;5057194;28;20048;-40
2022/09/29 10:10:23;;;;;;;5.05;2.90;;;17.70;1.00;;;;;;5055525;28;20134;-39
2022/09/29 10:13:03;;;;;;;2.88;2.50;;;17.50;99.90;;;;;;5055503;28;20049;-40
2022/09/29 10:15:39;;;;;;;5.72;3.08;;;17.70;99.90;;;;;;5057011;28;20120;-40
2022/09/29 10:18:20;;;;;;;3.85;3.15;;;17.70;99.90;;;;;;5056673;28;20516;-40
2022/09/29 10:20:46;;;;;;;4.55;3.50;;;17.50;1.00;;;;;;5055398;28;20126;-40
2022/09/29 10:23:29;;;;;;;6.35;4.15;;;16.90;1.00;;;;;;5056746;28;20049;-39
2022/09/29 10:26:16;;;;;;;;;;;17.00;99.90;;;;;;5056657;28;20190;-40
2022/09/29 10:28:49;;;;;;;2.75;2.00;;;17.00;67.90;;;;;;5056137;28;19928;-40
2022/09/29 10:31:22;;;;;;;;;;;17.20;99.90;;;;;;5057197;28;20049;-40
2022/09/29 10:33:55;;;;;;;4.10;3.33;;;17.00;99.90;;;;;;5055971;28;19921;-39
2022/09/29 10:36:22;;;;;;;4.78;2.83;;;16.90;1.00;;;;;;5055998;28;20525;-38
2022/09/29 10:38:51;;;;;;;4.13;2.17;;;16.90;27.00;;;;;;5054748;28;20394;-40
2022/09/29 10:41:18;;;;;;;4.18;1.60;;;17.10;1.00;;;;;;5055823;28;20041;-37
2022/09/29 10:43:46;;;;;;;2.42;1.40;;;16.70;28.00;;;;;;5054937;28;20110;-38
2022/09/29 10:46:35;;;;;;;2.53;1.15;;;16.00;99.90;;;;;;5055817;28;20080;-38
2022/09/29 10:49:09;;;;;;;3.60;1.60;;;16.20;99.90;;;;;;5055246;28;20122;-34
2022/09/29 10:51:35;;;;;;;2.33;1.40;;;16.20;99.90;;;;;;5055923;28;20518;-37
2022/09/29 10:54:13;;;;;;;9.73;1.83;;;15.70;99.90;;;;;;5055643;28;20049;-37
2022/09/29 10:56:46;;;;;;;2.42;1.00;;;16.10;99.90;;;;;;5054712;28;20045;-40
2022/09/29 10:59:13;;;;;;;1.92;1.08;;;16.90;1.00;;;;;;5056151;28;20068;-39
2022/09/29 11:01:52;;;;;;;1.25;1.00;;;17.30;99.90;;;;;;5054896;28;20441;-40
2022/09/29 11:04:39;;;;;;;1.80;0.95;;;17.90;99.90;;;;;;5055521;28;20053;-37
2022/09/29 11:07:11;;;;;;;2.97;1.17;;;17.60;1.00;;;;;;5054531;28;20438;-39
2022/09/29 11:09:42;;;;;;;1.50;0.90;;;17.70;31.50;;;;;;5055694;28;20068;-37
2022/09/29 11:12:28;;;;;;;3.20;1.52;;;17.80;99.90;;;;;;5054134;28;20088;-38
2022/09/29 11:14:54;;;;;;;3.58;1.30;;;17.90;1.00;;;;;;5056081;28;20052;-38
2022/09/29 11:17:29;;;;;;;2.75;1.45;;;18.30;99.90;;;;;;5054822;28;20049;-40
2022/09/29 11:20:01;;;;;;;2.13;1.40;;;18.50;1.00;;;;;;5055092;28;20041;-38
2022/09/29 11:22:33;;;;;;;;;;;18.80;71.20;;;;;;5054858;28;20139;-40
2022/09/29 11:25:21;;;;;;;1.95;1.08;;;18.80;1.00;;;;;;5055064;28;19927;-40
2022/09/29 11:27:55;;;;;;;1.35;0.70;;;18.90;99.90;;;;;;5055394;28;20517;-38
2022/09/29 11:30:26;;;;;;;1.30;0.32;;;18.80;1.00;;;;;;5055608;28;20136;-39
2022/09/29 11:33:28;;;;;;;1.17;0.47;;;18.60;99.90;;;;;;5055036;28;20053;-38
2022/09/29 11:36:17;;;;;;;1.35;0.52;;;18.20;99.90;;;;;;5054911;28;20088;-36
2022/09/29 11:39:22;;;;;;;1.63;0.40;;;17.50;1.00;;;;;;5055710;28;20124;-34
2022/09/29 11:42:00;;;;;;;0.98;0.30;;;16.70;91.80;;;;;;5053840;28;20057;-33
2022/09/29 11:44:35;;;;;;;0.60;0.20;;;16.10;99.90;;;;;;5054713;28;20143;-33
2022/09/29 11:47:04;;;;;;;0.98;0.20;;;16.40;1.00;;;;;;5054648;28;20107;-33
2022/09/29 11:49:43;;;;;;;1.15;0.43;;;17.00;97.70;;;;;;5054590;28;20583;-37
2022/09/29 11:52:35;;;;;;;0.90;0.30;;;17.90;1.00;;;;;;5054991;28;20080;-40
2022/09/29 11:55:04;;;;;;;1.67;0.25;;;18.40;99.90;;;;;;5054580;28;20041;-38
2022/09/29 11:57:51;;;;;;;0.57;0.10;;;18.80;99.90;;;;;;5036861;28;20475;-38
2022/09/29 12:00:19;;;;;;;0.98;0.10;;;19.00;99.90;;;;;;5054971;28;20051;-37
2022/09/29 12:03:26;;;;;;;0.95;0.40;;;19.20;99.90;;;;;;5053434;28;20055;-39
2022/09/29 12:06:03;;;;;;;1.67;0.10;;;18.40;35.30;;;;;;5054057;28;20056;-34
2022/09/29 12:08:56;;;;;;;0.65;0.20;;;17.80;99.90;;;;;;5055120;28;20041;-33
2022/09/29 12:11:48;;;;;;;2.47;0.20;;;17.10;99.90;;;;;;5054670;28;20092;-33
2022/09/29 12:14:46;;;;;;;0.73;0.20;;;16.40;99.90;;;;;;5053143;28;20487;-33
2022/09/29 12:17:17;;;;;;;1.02;0.25;;;15.90;57.80;;;;;;5054174;28;20045;-33
2022/09/29 12:19:46;;;;;;;0.50;0.20;;;15.70;99.90;;;;;;5054055;28;20084;-33
2022/09/29 12:22:18;;;;;;;0.43;0.20;;;15.40;99.90;;;;;;5053988;28;20505;-33
2022/09/29 12:24:50;;;;;;;2.85;0.52;;;15.30;99.90;;;;;;5053315;28;20467;-32
2022/09/29 12:27:19;;;;;;;3.05;0.95;;;15.20;99.90;;;;;;5053003;28;20506;-32
2022/09/29 12:30:12;;;;;;;1.63;0.57;;;15.00;99.90;;;;;;5053874;28;20131;-32
2022/09/29 12:32:43;;;;;;;1.13;0.60;;;14.90;99.90;;;;;;5055077;28;20435;-32
2022/09/29 12:35:20;;;;;;;1.60;0.40;;;14.90;1.00;;;;;;5054275;28;20061;-32
2022/09/29 12:37:53;;;;;;;0.60;0.28;;;14.80;99.90;;;;;;5054644;28;20052;-32
2022/09/29 12:40:36;;;;;;;2.25;0.20;;;14.80;99.90;;;;;;5054324;28;20079;-32
2022/09/29 12:43:11;;;;;;;0.50;0.22;;;14.80;99.90;;;;;;5052843;28;20136;-33
2022/09/29 12:46:06;;;;;;;0.55;0.25;;;14.70;99.90;;;;;;5054023;28;20110;-33
2022/09/29 12:48:57;;;;;;;0.85;0.20;;;14.50;88.60;;;;;;5054308;28;20131;-32
2022/09/29 12:51:44;;;;;;;1.42;0.22;;;14.40;99.90;;;;;;5054258;28;20426;-33
2022/09/29 12:54:31;;;;;;;0.73;0.30;;;14.30;99.90;;;;;;5053657;28;20061;-32
2022/09/29 12:57:02;;;;;;;1.83;0.20;;;14.20;99.90;;;;;;5053575;28;20076;-32
2022/09/29 12:59:43;;;;;;;1.23;0.25;;;14.10;1.00;;;;;;5053337;28;20402;-32
2022/09/29 13:02:20;;;;;;;1.10;0.28;;;14.10;1.00;;;;;;5054140;28;20051;-32